Time;durP1;ratioP1;P1;durP2;ratioP2;P2;SDS_P1;SDS_P2;PMS_P1;PMS_P2;Temp;Humidity;BMP_temperature;BMP_pressure;BME280_temperature;BME280_humidity;BME280_pressure;Samples;Min_cycle;Max_cycle;Signal;HPM_P1;HPM_P2
2022/06/12 00:00:28;;;;;;;7.63;2.38;;;15.10;99.90;;;;;;5102991;28;20309;-66
2022/06/12 00:02:55;;;;;;;5.25;2.20;;;15.00;99.90;;;;;;5101504;28;20135;-65
2022/06/12 00:05:24;;;;;;;4.72;2.30;;;15.00;99.90;;;;;;5084736;28;20052;-65
2022/06/12 00:07:50;;;;;;;8.98;2.90;;;14.90;99.90;;;;;;5086329;28;20258;-65
2022/06/12 00:10:17;;;;;;;7.55;2.33;;;14.90;99.90;;;;;;5102968;28;20310;-67
2022/06/12 00:12:43;;;;;;;7.25;2.60;;;14.90;99.90;;;;;;5099853;28;20109;-64
2022/06/12 00:15:12;;;;;;;6.68;2.45;;;14.80;99.90;;;;;;5102348;28;20118;-64
2022/06/12 00:17:38;;;;;;;10.77;2.72;;;14.80;99.90;;;;;;5099882;28;20118;-65
2022/06/12 00:20:05;;;;;;;5.32;2.65;;;14.80;99.90;;;;;;5084862;28;20040;-65
2022/06/12 00:22:31;;;;;;;8.27;2.72;;;14.80;99.90;;;;;;5102115;28;20044;-66
2022/06/12 00:24:56;;;;;;;7.05;2.33;;;14.90;99.90;;;;;;5065297;28;20046;-65
2022/06/12 00:27:22;;;;;;;8.55;2.70;;;14.90;99.90;;;;;;5103795;28;20035;-66
2022/06/12 00:29:50;;;;;;;10.30;2.45;;;14.90;99.90;;;;;;5102305;28;20044;-66
2022/06/12 00:32:17;;;;;;;5.50;2.30;;;14.90;99.90;;;;;;5104135;28;20051;-65
2022/06/12 00:34:49;;;;;;;5.90;1.95;;;14.90;99.90;;;;;;5096897;28;20467;-65
2022/06/12 00:37:21;;;;;;;8.50;2.28;;;14.90;99.90;;;;;;5100022;28;20477;-65
2022/06/12 00:39:49;;;;;;;6.65;2.55;;;14.80;99.90;;;;;;5080094;28;20415;-66
2022/06/12 00:42:28;;;;;;;5.65;2.42;;;14.80;99.90;;;;;;5085538;28;20032;-65
2022/06/12 00:44:56;;;;;;;8.38;2.55;;;14.80;99.90;;;;;;5100389;28;20058;-65
2022/06/12 00:47:23;;;;;;;7.32;2.47;;;14.70;99.90;;;;;;5081480;28;20036;-65
2022/06/12 00:49:57;;;;;;;8.60;2.78;;;14.80;99.90;;;;;;5102281;28;20346;-65
2022/06/12 00:52:36;;;;;;;6.32;2.35;;;14.70;99.90;;;;;;5095932;28;20147;-65
2022/06/12 00:55:11;;;;;;;4.53;2.45;;;14.70;99.90;;;;;;5098728;28;20043;-64
2022/06/12 00:57:37;;;;;;;7.75;2.50;;;14.70;99.90;;;;;;5102397;28;20340;-66
2022/06/12 01:00:12;;;;;;;8.32;3.17;;;14.60;99.90;;;;;;5102096;28;20040;-65
2022/06/12 01:02:39;;;;;;;5.47;2.13;;;14.60;99.90;;;;;;5100706;28;20115;-66
2022/06/12 01:07:56;;;;;;;8.68;2.53;;;14.40;99.90;;;;;;5102974;28;20241;-65
2022/06/12 01:10:25;;;;;;;9.10;2.67;;;14.40;99.90;;;;;;5096334;28;20097;-65
2022/06/12 01:13:00;;;;;;;7.68;2.65;;;14.30;99.90;;;;;;5101441;28;20044;-65
2022/06/12 01:15:28;;;;;;;7.53;2.58;;;14.30;99.90;;;;;;5083431;28;20122;-65
2022/06/12 01:17:56;;;;;;;7.47;2.45;;;14.20;99.90;;;;;;5053613;28;20503;-65
2022/06/12 01:20:27;;;;;;;6.90;2.40;;;14.20;99.90;;;;;;5094671;28;20372;-64
2022/06/12 01:23:21;;;;;;;7.40;2.78;;;14.20;99.90;;;;;;5098879;28;20044;-65
2022/06/12 01:25:52;;;;;;;7.05;2.72;;;14.10;99.90;;;;;;4992793;28;20067;-65
2022/06/12 01:28:39;;;;;;;7.70;2.83;;;14.10;99.90;;;;;;4999929;28;20030;-65
2022/06/12 01:31:22;;;;;;;13.23;3.25;;;14.10;99.90;;;;;;4997833;28;20038;-66
2022/06/12 01:33:58;;;;;;;5.28;2.58;;;14.00;99.90;;;;;;5028602;28;20456;-65
2022/06/12 01:37:08;;;;;;;7.28;2.70;;;13.90;99.90;;;;;;5095302;28;20047;-65
2022/06/12 01:39:52;;;;;;;8.48;2.90;;;14.00;99.90;;;;;;5069092;28;20055;-65
2022/06/12 01:42:34;;;;;;;6.15;2.70;;;13.90;99.90;;;;;;5101544;28;20035;-66
2022/06/12 01:45:35;;;;;;;8.48;2.80;;;13.90;99.90;;;;;;5100027;28;20050;-65
2022/06/12 01:48:16;;;;;;;11.40;3.42;;;13.80;99.90;;;;;;5100749;28;20454;-65
2022/06/12 01:50:57;;;;;;;11.30;2.90;;;13.80;99.90;;;;;;5100538;28;20036;-64
2022/06/12 01:53:35;;;;;;;7.05;2.65;;;13.80;99.90;;;;;;5095294;28;20056;-64
2022/06/12 01:56:15;;;;;;;9.65;2.70;;;13.80;99.90;;;;;;5098837;28;20054;-64
2022/06/12 01:59:02;;;;;;;7.50;2.35;;;13.70;99.90;;;;;;5099561;28;20043;-64
2022/06/12 02:01:42;;;;;;;7.05;3.15;;;13.70;99.90;;;;;;5100145;28;20043;-64
2022/06/12 02:04:15;;;;;;;7.57;2.97;;;13.70;99.90;;;;;;5097218;28;20457;-65
2022/06/12 02:07:01;;;;;;;7.28;2.83;;;13.70;99.90;;;;;;5100379;28;20439;-64
2022/06/12 02:09:36;;;;;;;11.10;3.20;;;13.60;99.90;;;;;;5098564;28;20040;-64
2022/06/12 02:15:04;;;;;;;9.35;3.08;;;13.60;99.90;;;;;;5099191;28;20071;-65
2022/06/12 02:17:40;;;;;;;7.38;2.78;;;13.50;99.90;;;;;;5098144;28;20047;-65
2022/06/12 02:20:09;;;;;;;6.88;3.03;;;13.50;99.90;;;;;;5098611;28;20093;-65
2022/06/12 02:22:43;;;;;;;7.50;3.00;;;13.50;99.90;;;;;;5099818;28;20100;-65
2022/06/12 02:25:21;;;;;;;7.38;3.05;;;13.50;99.90;;;;;;5099021;28;20113;-65
2022/06/12 02:28:24;;;;;;;8.70;3.53;;;13.40;99.90;;;;;;5097201;28;20028;-65
2022/06/12 02:30:55;;;;;;;8.30;2.92;;;13.40;99.90;;;;;;4995664;28;20041;-65
2022/06/12 02:33:25;;;;;;;6.43;2.85;;;13.30;99.90;;;;;;5007976;28;20049;-66
2022/06/12 02:36:00;;;;;;;8.73;3.08;;;13.30;99.90;;;;;;4996675;28;20048;-65
2022/06/12 02:38:41;;;;;;;6.15;2.42;;;13.30;99.90;;;;;;4995254;28;20042;-65
2022/06/12 02:41:20;;;;;;;11.27;3.15;;;13.20;99.90;;;;;;5085693;28;20039;-65
2022/06/12 02:43:48;;;;;;;9.48;3.10;;;13.20;99.90;;;;;;5094836;28;20353;-65
2022/06/12 02:46:43;;;;;;;8.32;2.53;;;13.20;99.90;;;;;;5101476;28;20035;-65
2022/06/12 02:49:09;;;;;;;9.43;3.10;;;13.10;99.90;;;;;;5074868;28;20044;-66
2022/06/12 02:52:11;;;;;;;8.48;3.13;;;13.10;99.90;;;;;;5099553;28;20438;-65
2022/06/12 02:54:57;;;;;;;8.88;2.58;;;13.10;99.90;;;;;;5078203;28;20139;-65
2022/06/12 02:57:34;;;;;;;9.82;2.75;;;13.10;99.90;;;;;;5080582;28;20333;-66
2022/06/12 03:00:20;;;;;;;7.75;3.05;;;13.10;99.90;;;;;;5100242;28;20036;-65
2022/06/12 03:02:57;;;;;;;8.35;2.80;;;13.10;99.90;;;;;;5053633;28;20030;-64
2022/06/12 03:05:37;;;;;;;6.95;2.60;;;13.00;99.90;;;;;;4997789;28;20135;-65
2022/06/12 03:08:28;;;;;;;7.75;2.53;;;13.00;99.90;;;;;;5062423;28;20038;-65
2022/06/12 03:11:08;;;;;;;10.82;3.10;;;13.00;99.90;;;;;;5004512;28;20434;-65
2022/06/12 03:13:35;;;;;;;8.95;2.90;;;13.00;99.90;;;;;;5003001;28;20038;-66
2022/06/12 03:16:12;;;;;;;8.30;2.75;;;13.00;99.90;;;;;;5003835;28;20041;-65
2022/06/12 03:18:41;;;;;;;10.20;3.15;;;12.90;99.90;;;;;;5042600;28;20547;-65
2022/06/12 03:21:21;;;;;;;7.28;2.80;;;12.90;99.90;;;;;;5103381;28;20043;-65
2022/06/12 03:23:47;;;;;;;10.43;3.20;;;12.90;99.90;;;;;;5099849;28;20406;-65
2022/06/12 03:26:27;;;;;;;10.50;2.92;;;13.00;99.90;;;;;;5105728;28;20039;-65
2022/06/12 03:29:04;;;;;;;7.43;2.63;;;12.90;99.90;;;;;;5103517;28;20035;-64
2022/06/12 03:31:37;;;;;;;7.93;2.85;;;12.90;99.90;;;;;;5103448;28;20364;-64
2022/06/12 03:34:13;;;;;;;8.73;2.88;;;12.90;99.90;;;;;;5099735;28;20123;-65
2022/06/12 03:36:47;;;;;;;10.82;2.72;;;12.90;99.90;;;;;;5101630;28;20047;-65
2022/06/12 03:39:28;;;;;;;10.70;3.13;;;12.90;99.90;;;;;;5104852;28;20040;-65
2022/06/12 03:42:08;;;;;;;11.40;3.05;;;12.90;99.90;;;;;;5102004;28;20512;-65
2022/06/12 03:45:06;;;;;;;8.23;3.30;;;13.00;99.90;;;;;;5038915;28;20051;-64
2022/06/12 03:47:39;;;;;;;9.85;3.05;;;12.90;99.90;;;;;;5073328;28;20376;-64
2022/06/12 03:50:13;;;;;;;10.73;2.90;;;12.90;99.90;;;;;;5102094;28;20068;-64
2022/06/12 03:53:01;;;;;;;11.70;3.10;;;13.00;99.90;;;;;;5071408;28;20674;-64
2022/06/12 03:58:38;;;;;;;10.75;2.80;;;13.10;99.90;;;;;;5099283;28;20059;-65
2022/06/12 04:01:06;;;;;;;9.07;3.03;;;13.10;99.90;;;;;;5100750;28;20036;-64
2022/06/12 04:03:37;;;;;;;8.70;2.83;;;13.20;99.90;;;;;;5103585;28;20098;-65
2022/06/12 04:06:12;;;;;;;9.35;3.00;;;13.20;99.90;;;;;;5100838;28;20039;-64
2022/06/12 04:08:43;;;;;;;9.50;2.65;;;13.20;99.90;;;;;;5103776;28;20157;-66
2022/06/12 04:11:11;;;;;;;15.60;3.80;;;13.30;99.90;;;;;;5102207;28;20062;-64
2022/06/12 04:13:39;;;;;;;6.90;3.03;;;13.30;99.90;;;;;;5103120;28;20058;-64
2022/06/12 04:16:28;;;;;;;9.60;3.20;;;13.40;99.90;;;;;;5103636;28;20271;-65
2022/06/12 04:18:54;;;;;;;11.68;3.22;;;13.40;99.90;;;;;;5100983;28;20064;-65
2022/06/12 04:21:28;;;;;;;11.35;2.80;;;13.50;99.90;;;;;;5101053;28;20092;-65
2022/06/12 04:24:09;;;;;;;9.50;2.80;;;13.50;99.90;;;;;;5099949;28;20368;-65
2022/06/12 04:26:39;;;;;;;10.93;3.20;;;13.60;99.90;;;;;;5077227;28;20051;-65
2022/06/12 04:29:11;;;;;;;7.80;2.38;;;13.70;99.90;;;;;;5101091;28;20115;-65
2022/06/12 04:31:38;;;;;;;13.07;3.47;;;13.60;99.90;;;;;;5104288;28;20043;-65
2022/06/12 04:34:15;;;;;;;11.73;3.05;;;13.70;99.90;;;;;;5101518;28;20036;-66
2022/06/12 04:36:44;;;;;;;7.95;3.17;;;13.70;99.90;;;;;;5100329;28;20036;-66
2022/06/12 04:39:12;;;;;;;8.75;2.67;;;13.80;99.90;;;;;;5103908;28;20047;-65
2022/06/12 04:41:38;;;;;;;11.10;3.03;;;13.90;99.90;;;;;;5102249;28;20076;-66
2022/06/12 04:44:05;;;;;;;9.88;2.78;;;14.00;99.90;;;;;;5068791;28;20423;-65
2022/06/12 04:46:33;;;;;;;10.75;2.92;;;13.90;99.90;;;;;;5102663;28;20074;-65
2022/06/12 04:48:59;;;;;;;12.50;3.30;;;14.00;99.90;;;;;;5104386;28;20032;-65
2022/06/12 04:51:25;;;;;;;10.68;2.95;;;14.10;99.90;;;;;;5073954;28;20360;-65
2022/06/12 04:53:52;;;;;;;8.80;2.65;;;14.20;99.90;;;;;;5100082;28;20046;-65
2022/06/12 04:56:20;;;;;;;9.27;2.95;;;14.60;99.90;;;;;;5102810;28;20586;-66
2022/06/12 04:58:46;;;;;;;10.73;3.10;;;15.40;99.90;;;;;;5101505;28;20028;-65
2022/06/12 05:01:13;;;;;;;8.23;3.65;;;16.20;99.90;;;;;;5101075;28;20111;-65
2022/06/12 05:03:39;;;;;;;7.47;2.40;;;16.90;99.90;;;;;;5103090;28;20107;-67
2022/06/12 05:06:06;;;;;;;9.52;2.95;;;17.50;99.90;;;;;;5102661;28;20047;-67
2022/06/12 05:08:33;;;;;;;15.10;3.22;;;18.00;99.90;;;;;;5103245;28;20035;-66
2022/06/12 05:10:59;;;;;;;10.55;3.28;;;18.40;99.90;;;;;;5102080;28;20042;-66
2022/06/12 05:13:24;;;;;;;8.93;2.70;;;18.60;99.90;;;;;;5100075;28;20361;-66
2022/06/12 05:15:50;;;;;;;10.05;2.97;;;18.90;99.90;;;;;;5103723;28;20027;-66
2022/06/12 05:18:19;;;;;;;13.02;3.20;;;19.50;99.90;;;;;;5084219;28;20339;-66
2022/06/12 05:20:46;;;;;;;8.90;2.70;;;20.20;99.90;;;;;;5095135;28;20040;-67
2022/06/12 05:23:11;;;;;;;9.43;2.60;;;20.70;99.90;;;;;;5095696;28;20044;-66
2022/06/12 05:25:39;;;;;;;9.88;2.65;;;20.80;99.90;;;;;;5092831;28;20059;-66
2022/06/12 05:28:05;;;;;;;13.32;2.85;;;20.80;99.90;;;;;;5086050;28;20084;-66
2022/06/12 05:30:34;;;;;;;10.65;3.10;;;21.00;99.90;;;;;;5110610;28;20123;-66
2022/06/12 05:33:00;;;;;;;12.00;3.15;;;21.00;99.90;;;;;;5089705;28;20048;-65
2022/06/12 05:35:29;;;;;;;8.57;3.10;;;20.90;99.90;;;;;;5098131;28;20076;-65
2022/06/12 05:37:55;;;;;;;14.18;3.58;;;21.10;99.90;;;;;;5101918;28;20064;-66
2022/06/12 05:40:25;;;;;;;11.52;3.55;;;20.80;99.90;;;;;;5105926;28;20039;-65
2022/06/12 05:42:51;;;;;;;14.52;3.35;;;20.70;99.90;;;;;;5104502;28;20086;-65
2022/06/12 05:45:24;;;;;;;13.15;3.50;;;20.50;99.90;;;;;;5099244;28;20042;-66
2022/06/12 05:47:53;;;;;;;13.40;3.00;;;20.60;99.90;;;;;;5097074;28;20114;-65
2022/06/12 05:50:26;;;;;;;13.85;3.33;;;21.00;99.90;;;;;;5101280;28;20489;-67
2022/06/12 05:52:52;;;;;;;11.80;3.40;;;21.50;99.90;;;;;;5096294;28;20827;-65
2022/06/12 05:55:18;;;;;;;16.48;4.35;;;21.60;99.90;;;;;;5067954;28;20138;-65
2022/06/12 05:57:44;;;;;;;11.73;3.13;;;21.40;99.90;;;;;;5064208;28;20048;-64
2022/06/12 06:00:18;;;;;;;13.45;3.25;;;20.70;99.90;;;;;;5104587;28;20028;-64
2022/06/12 06:02:44;;;;;;;13.90;3.30;;;20.10;99.90;;;;;;5096182;28;20118;-65
2022/06/12 06:05:11;;;;;;;12.63;3.70;;;19.40;99.90;;;;;;5099343;28;20115;-65
2022/06/12 06:07:37;;;;;;;12.38;3.58;;;19.20;99.90;;;;;;5100651;28;20036;-65
2022/06/12 06:10:06;;;;;;;12.65;3.50;;;19.10;99.90;;;;;;5093227;28;20077;-65
2022/06/12 06:12:33;;;;;;;11.68;4.13;;;19.20;99.90;;;;;;5096864;28;20044;-64
2022/06/12 06:14:58;;;;;;;12.32;3.78;;;19.20;99.90;;;;;;5082687;28;20039;-65
2022/06/12 06:17:24;;;;;;;14.07;3.58;;;19.20;99.90;;;;;;5097119;28;20050;-64
2022/06/12 06:19:50;;;;;;;11.52;3.70;;;18.80;99.90;;;;;;5099995;28;20392;-64
2022/06/12 06:22:18;;;;;;;15.23;4.00;;;18.70;99.90;;;;;;5100357;28;20043;-64
2022/06/12 06:24:45;;;;;;;16.58;4.05;;;18.90;99.90;;;;;;5094648;28;20063;-64
2022/06/12 06:27:14;;;;;;;18.73;4.20;;;18.90;99.90;;;;;;5102490;28;20032;-65
2022/06/12 06:29:40;;;;;;;10.63;3.30;;;19.10;99.90;;;;;;5100153;28;20043;-65
2022/06/12 06:32:07;;;;;;;15.88;4.20;;;19.50;99.90;;;;;;5100692;28;20032;-65
2022/06/12 06:34:35;;;;;;;15.55;4.00;;;20.20;99.90;;;;;;5097424;28;20115;-65
2022/06/12 06:37:00;;;;;;;12.70;3.65;;;21.00;99.90;;;;;;5100161;28;20039;-65
2022/06/12 06:39:26;;;;;;;16.02;3.95;;;21.50;99.90;;;;;;5100761;28;20035;-65
2022/06/12 06:41:52;;;;;;;15.55;4.10;;;21.90;99.90;;;;;;5053870;28;20054;-66
2022/06/12 06:47:02;;;;;;;11.60;3.78;;;22.30;99.90;;;;;;5095675;28;20222;-65
2022/06/12 06:49:28;;;;;;;13.43;4.45;;;22.60;99.90;;;;;;5100899;28;20065;-66
2022/06/12 06:51:54;;;;;;;14.25;4.90;;;22.70;99.90;;;;;;5097871;28;20044;-65
2022/06/12 06:54:19;;;;;;;13.75;4.65;;;23.00;99.90;;;;;;5099257;28;20368;-66
2022/06/12 06:56:46;;;;;;;14.57;3.75;;;23.30;99.90;;;;;;5073691;28;20050;-65
2022/06/12 06:59:12;;;;;;;14.25;3.97;;;22.90;99.90;;;;;;5099421;28;20031;-66
2022/06/12 07:01:37;;;;;;;12.90;4.18;;;22.50;99.90;;;;;;5073863;28;20043;-65
2022/06/12 07:04:03;;;;;;;22.45;4.28;;;21.90;99.90;;;;;;5100039;28;20042;-65
2022/06/12 07:06:29;;;;;;;13.35;4.15;;;21.60;99.90;;;;;;5101602;28;20187;-65
2022/06/12 07:08:56;;;;;;;14.55;4.80;;;21.40;99.90;;;;;;5102271;28;20032;-65
2022/06/12 07:11:23;;;;;;;13.52;3.90;;;21.40;99.90;;;;;;5068668;28;20046;-65
2022/06/12 07:13:49;;;;;;;17.05;4.35;;;21.40;99.90;;;;;;5099328;28;20023;-65
2022/06/12 07:16:16;;;;;;;14.90;4.47;;;21.50;99.90;;;;;;5101977;28;20031;-66
2022/06/12 07:18:42;;;;;;;15.00;4.53;;;21.10;99.90;;;;;;5097315;28;20123;-64
2022/06/12 07:21:07;;;;;;;14.77;4.07;;;20.60;99.90;;;;;;5098633;28;20461;-65
2022/06/12 07:23:34;;;;;;;18.02;4.40;;;20.50;99.90;;;;;;5099864;28;20053;-65
2022/06/12 07:26:07;;;;;;;18.25;4.18;;;20.30;99.90;;;;;;5099803;28;20040;-66
2022/06/12 07:28:35;;;;;;;17.00;4.72;;;20.20;99.90;;;;;;5099719;28;20039;-65
2022/06/12 07:31:03;;;;;;;13.75;3.92;;;20.40;99.90;;;;;;5072014;28;20039;-66
2022/06/12 07:33:29;;;;;;;14.50;4.30;;;20.60;99.90;;;;;;5100568;28;20071;-66
2022/06/12 07:35:54;;;;;;;15.85;3.90;;;20.70;99.90;;;;;;5098621;28;20055;-66
2022/06/12 07:38:23;;;;;;;16.48;4.25;;;20.70;99.90;;;;;;5096513;28;20356;-66
2022/06/12 07:40:52;;;;;;;15.88;4.55;;;20.90;99.90;;;;;;5093982;28;20068;-66
2022/06/12 07:43:18;;;;;;;13.23;3.90;;;21.10;99.90;;;;;;5097881;28;20083;-66
2022/06/12 07:45:45;;;;;;;12.82;3.97;;;21.20;99.90;;;;;;5094109;28;20056;-65
2022/06/12 07:48:11;;;;;;;16.08;4.30;;;21.30;99.90;;;;;;5097952;28;20101;-64
2022/06/12 07:50:39;;;;;;;16.90;4.28;;;21.30;99.90;;;;;;5099330;28;20117;-64
2022/06/12 07:53:05;;;;;;;17.33;4.40;;;21.30;99.90;;;;;;5095284;28;20050;-64
2022/06/12 07:55:31;;;;;;;12.55;3.80;;;21.40;99.90;;;;;;5068961;28;20042;-64
2022/06/12 07:57:57;;;;;;;14.07;4.32;;;21.40;99.90;;;;;;5092309;28;20044;-64
2022/06/12 08:00:23;;;;;;;12.32;4.65;;;21.20;99.90;;;;;;5091636;28;20069;-63
2022/06/12 08:02:49;;;;;;;14.20;4.15;;;21.30;99.90;;;;;;5094018;28;20132;-65
2022/06/12 08:05:17;;;;;;;16.85;4.10;;;21.30;99.90;;;;;;5094452;28;20028;-65
2022/06/12 08:07:43;;;;;;;16.20;4.72;;;21.30;99.90;;;;;;5018254;28;20116;-64
2022/06/12 08:10:11;;;;;;;14.05;4.20;;;21.40;99.90;;;;;;5094457;28;20441;-65
2022/06/12 08:12:40;;;;;;;16.77;4.28;;;21.40;99.90;;;;;;5093813;28;20050;-65
2022/06/12 08:15:12;;;;;;;13.30;3.80;;;21.50;99.90;;;;;;5103529;28;20043;-64
2022/06/12 08:17:37;;;;;;;13.30;4.45;;;21.50;99.90;;;;;;5100674;28;20100;-64
2022/06/12 08:22:49;;;;;;;13.55;4.22;;;21.80;99.90;;;;;;5102313;28;20051;-63
2022/06/12 08:25:15;;;;;;;12.43;3.78;;;21.90;99.90;;;;;;5101563;28;20039;-64
2022/06/12 08:27:40;;;;;;;16.80;4.05;;;21.80;99.90;;;;;;5086011;28;20105;-64
2022/06/12 08:30:07;;;;;;;17.48;4.15;;;21.70;99.90;;;;;;5103832;28;20361;-64
2022/06/12 08:32:35;;;;;;;12.50;3.95;;;21.60;99.90;;;;;;5102474;28;20051;-64
2022/06/12 08:35:06;;;;;;;10.50;4.30;;;21.60;99.90;;;;;;5104915;28;20039;-64
2022/06/12 08:37:35;;;;;;;11.23;3.63;;;21.60;99.90;;;;;;5101385;28;20422;-64
2022/06/12 08:40:03;;;;;;;11.20;3.13;;;21.60;99.90;;;;;;5100823;28;20036;-64
2022/06/12 08:42:41;;;;;;;11.35;2.92;;;21.50;99.90;;;;;;5102444;28;20047;-65
2022/06/12 08:45:20;;;;;;;12.32;2.97;;;21.50;99.90;;;;;;5100417;28;20055;-65
2022/06/12 08:47:55;;;;;;;9.55;2.97;;;21.50;99.90;;;;;;5070759;28;20074;-65
2022/06/12 08:50:39;;;;;;;11.90;3.30;;;21.70;99.90;;;;;;5075384;28;20040;-65
2022/06/12 08:53:17;;;;;;;10.75;3.15;;;21.90;99.90;;;;;;5100854;28;20112;-64
2022/06/12 08:55:55;;;;;;;9.20;3.10;;;21.90;99.90;;;;;;5070063;28;20108;-65
2022/06/12 08:58:32;;;;;;;8.27;3.35;;;21.70;99.90;;;;;;5103096;28;20044;-64
2022/06/12 09:00:59;;;;;;;13.15;3.05;;;21.50;99.90;;;;;;5083756;28;20074;-65
2022/06/12 09:03:37;;;;;;;7.30;2.63;;;21.40;99.90;;;;;;5074628;28;20028;-64
2022/06/12 09:06:23;;;;;;;12.88;3.00;;;21.60;99.90;;;;;;5099237;28;20665;-65
2022/06/12 09:08:55;;;;;;;6.20;2.25;;;21.60;99.90;;;;;;5034426;28;20040;-65
2022/06/12 09:11:33;;;;;;;9.50;2.40;;;21.70;99.90;;;;;;5070376;28;20446;-65
2022/06/12 09:14:17;;;;;;;10.98;3.35;;;21.60;99.90;;;;;;5101897;28;20047;-65
2022/06/12 09:17:01;;;;;;;12.85;3.55;;;21.40;99.90;;;;;;5099558;28;20109;-65
2022/06/12 09:19:38;;;;;;;9.25;3.05;;;21.50;99.90;;;;;;5100465;28;20036;-64
2022/06/12 09:22:29;;;;;;;8.32;3.10;;;21.60;99.90;;;;;;5096675;28;20381;-64
2022/06/12 09:25:12;;;;;;;10.70;2.90;;;21.70;99.90;;;;;;5104257;28;20036;-65
2022/06/12 09:28:01;;;;;;;9.05;3.03;;;21.70;99.90;;;;;;5102623;28;20127;-65
2022/06/12 09:30:42;;;;;;;12.07;3.20;;;21.70;99.90;;;;;;5067261;28;20071;-64
2022/06/12 09:33:23;;;;;;;10.38;2.83;;;21.80;99.90;;;;;;5098784;28;20043;-64
2022/06/12 09:36:00;;;;;;;9.60;2.50;;;21.80;99.90;;;;;;5098478;28;20037;-66
2022/06/12 09:38:41;;;;;;;8.73;2.72;;;21.80;99.90;;;;;;5052739;28;20378;-65
2022/06/12 09:41:32;;;;;;;6.30;2.53;;;21.70;99.90;;;;;;5099801;28;20074;-64
2022/06/12 09:44:35;;;;;;;8.38;2.50;;;21.70;99.90;;;;;;5098702;28;20032;-65
2022/06/12 09:47:27;;;;;;;8.63;2.88;;;22.00;99.90;;;;;;5073422;28;20047;-65
2022/06/12 09:49:58;;;;;;;10.32;2.88;;;22.20;99.90;;;;;;5100931;28;20038;-66
2022/06/12 09:52:46;;;;;;;7.30;2.70;;;22.20;99.90;;;;;;5097310;28;20117;-65
2022/06/12 09:55:24;;;;;;;8.70;2.85;;;22.10;99.90;;;;;;5098328;28;20048;-65
2022/06/12 09:57:53;;;;;;;13.30;2.45;;;22.00;99.90;;;;;;5098130;28;20044;-65
2022/06/12 10:00:31;;;;;;;7.18;2.42;;;21.90;99.90;;;;;;5097196;28;20066;-65
2022/06/12 10:03:03;;;;;;;9.80;2.70;;;21.70;99.90;;;;;;5096046;28;20127;-65
2022/06/12 10:06:04;;;;;;;7.55;2.58;;;21.70;99.90;;;;;;5096324;28;20119;-64
2022/06/12 10:08:33;;;;;;;11.00;3.33;;;21.70;99.90;;;;;;5094423;28;20107;-66
2022/06/12 10:11:03;;;;;;;11.60;3.53;;;21.60;99.90;;;;;;5096378;28;20096;-65
2022/06/12 10:13:46;;;;;;;13.77;2.83;;;21.70;99.90;;;;;;5095935;28;20044;-64
2022/06/12 10:16:21;;;;;;;9.48;3.05;;;21.80;99.90;;;;;;5076730;28;20146;-64
2022/06/12 10:19:03;;;;;;;12.93;3.38;;;21.90;99.90;;;;;;5096710;28;20096;-64
2022/06/12 10:21:34;;;;;;;8.02;2.40;;;22.00;99.90;;;;;;5075379;28;20338;-65
2022/06/12 10:24:01;;;;;;;11.23;2.90;;;22.10;99.90;;;;;;5098350;28;20040;-64
2022/06/12 10:26:30;;;;;;;7.13;1.90;;;22.30;99.90;;;;;;5101795;28;20503;-64
2022/06/12 10:29:09;;;;;;;7.50;2.63;;;22.20;99.90;;;;;;5101403;28;20028;-65
2022/06/12 10:31:49;;;;;;;9.10;2.08;;;22.20;99.90;;;;;;5071843;28;20209;-65
2022/06/12 10:34:24;;;;;;;8.23;1.98;;;22.20;99.90;;;;;;5100849;28;20111;-64
2022/06/12 10:36:50;;;;;;;7.70;2.03;;;22.10;99.40;;;;;;5097595;28;20032;-64
2022/06/12 10:39:19;;;;;;;5.93;1.85;;;22.00;99.10;;;;;;5101154;28;20036;-65
2022/06/12 10:42:00;;;;;;;8.45;2.38;;;22.00;99.20;;;;;;5096782;28;20410;-64
2022/06/12 10:44:52;;;;;;;10.27;2.45;;;21.90;99.30;;;;;;5097800;28;20046;-64
2022/06/12 10:47:28;;;;;;;9.70;2.42;;;21.90;99.10;;;;;;5058339;28;20475;-64
2022/06/12 10:50:06;;;;;;;9.23;2.88;;;21.80;99.00;;;;;;5100237;28;20318;-64
2022/06/12 10:52:33;;;;;;;7.45;2.40;;;21.50;99.30;;;;;;5094187;28;20170;-64
2022/06/12 10:54:59;;;;;;;6.40;2.30;;;21.80;99.50;;;;;;5100273;28;20031;-64
2022/06/12 10:57:43;;;;;;;5.65;2.08;;;21.80;99.20;;;;;;5100015;28;20135;-65
2022/06/12 11:00:19;;;;;;;4.53;2.00;;;21.90;99.40;;;;;;5099235;28;20048;-64
2022/06/12 11:03:33;;;;;;;8.30;2.75;;;21.90;99.10;;;;;;5067087;28;20040;-65
2022/06/12 11:06:11;;;;;;;9.70;2.53;;;21.90;99.20;;;;;;5096868;28;20050;-65
2022/06/12 11:09:01;;;;;;;9.38;2.33;;;21.90;99.10;;;;;;5078217;28;20043;-65
2022/06/12 11:11:49;;;;;;;11.65;2.50;;;21.80;99.50;;;;;;5097966;28;20032;-64
2022/06/12 11:14:28;;;;;;;7.07;2.20;;;21.90;99.30;;;;;;5096894;28;20291;-64
2022/06/12 11:17:12;;;;;;;4.68;1.80;;;21.80;99.40;;;;;;5098381;28;20058;-65
2022/06/12 11:20:04;;;;;;;5.90;1.80;;;21.80;97.70;;;;;;5101102;28;20088;-65
2022/06/12 11:22:37;;;;;;;7.40;2.40;;;21.90;97.40;;;;;;5096620;28;20039;-64
2022/06/12 11:25:12;;;;;;;9.10;2.47;;;21.90;97.60;;;;;;5094947;28;20111;-65
2022/06/12 11:27:56;;;;;;;5.15;1.77;;;22.00;97.80;;;;;;5100658;28;20063;-64
2022/06/12 11:30:30;;;;;;;8.10;2.13;;;21.90;97.20;;;;;;5098890;28;20498;-64
2022/06/12 11:33:27;;;;;;;7.85;1.92;;;21.90;97.40;;;;;;5101204;28;20055;-64
2022/06/12 11:36:06;;;;;;;5.95;1.98;;;22.00;97.40;;;;;;5097876;28;20039;-65
2022/06/12 11:38:51;;;;;;;5.90;2.10;;;22.00;97.20;;;;;;5099999;28;20118;-65
2022/06/12 11:41:42;;;;;;;6.95;2.15;;;22.10;97.40;;;;;;5073243;28;20060;-64
2022/06/12 11:44:29;;;;;;;6.82;2.00;;;22.00;96.80;;;;;;5065261;28;20118;-65
2022/06/12 11:47:15;;;;;;;5.32;2.17;;;22.00;96.80;;;;;;5103778;28;20032;-65
2022/06/12 11:49:43;;;;;;;4.97;1.77;;;21.90;97.70;;;;;;5105221;28;20119;-65
2022/06/12 11:52:59;;;;;;;10.05;2.35;;;21.90;96.60;;;;;;5100396;28;20044;-63
2022/06/12 11:55:49;;;;;;;7.88;2.00;;;21.90;97.40;;;;;;5025365;28;20108;-64
2022/06/12 11:58:41;;;;;;;4.63;2.00;;;21.90;97.50;;;;;;5009160;28;20068;-65
2022/06/12 12:01:20;;;;;;;7.15;2.10;;;21.90;97.50;;;;;;5086369;28;20091;-64
2022/06/12 12:04:11;;;;;;;8.30;2.28;;;21.90;96.90;;;;;;5102734;28;20040;-65
2022/06/12 12:06:56;;;;;;;6.13;2.05;;;21.90;96.60;;;;;;5109680;28;20108;-64
2022/06/12 12:09:35;;;;;;;7.70;1.90;;;21.90;96.90;;;;;;5105632;28;20085;-64
2022/06/12 12:12:09;;;;;;;8.65;2.05;;;21.90;96.50;;;;;;5104473;28;20036;-65
2022/06/12 12:14:38;;;;;;;7.47;1.90;;;21.90;97.00;;;;;;5100742;28;20545;-64
2022/06/12 12:17:19;;;;;;;7.00;2.22;;;21.90;97.10;;;;;;5097385;28;20032;-64
2022/06/12 12:20:04;;;;;;;7.70;2.00;;;22.00;97.80;;;;;;5099855;28;20211;-64
2022/06/12 12:22:33;;;;;;;6.13;1.70;;;22.00;97.60;;;;;;5099461;28;20372;-64
2022/06/12 12:25:23;;;;;;;7.18;1.98;;;22.00;96.90;;;;;;5102324;28;20169;-65
2022/06/12 12:27:55;;;;;;;5.93;1.95;;;22.10;96.90;;;;;;5099617;28;20028;-64
2022/06/12 12:30:28;;;;;;;10.50;1.98;;;22.00;96.30;;;;;;5104306;28;20071;-64
2022/06/12 12:32:56;;;;;;;8.25;1.83;;;21.90;97.00;;;;;;5103625;28;20122;-64
2022/06/12 12:41:24;;;;;;;4.65;1.60;;;21.90;96.70;;;;;;5101404;28;20044;-64
2022/06/12 12:44:00;;;;;;;13.23;2.65;;;22.00;96.50;;;;;;5096341;28;20038;-65
2022/06/12 12:46:49;;;;;;;8.07;2.30;;;22.20;96.20;;;;;;5000352;28;20034;-64
2022/06/12 12:49:26;;;;;;;5.45;1.65;;;22.10;96.20;;;;;;5000189;28;20022;-64
2022/06/12 12:52:22;;;;;;;4.10;1.70;;;22.10;95.10;;;;;;4998939;28;20046;-64
2022/06/12 12:54:59;;;;;;;9.23;2.30;;;22.10;96.60;;;;;;5061254;28;20042;-64
2022/06/12 12:57:35;;;;;;;5.78;1.95;;;22.10;97.00;;;;;;4997686;28;20121;-64
2022/06/12 13:00:08;;;;;;;5.35;1.80;;;22.30;96.80;;;;;;5066736;28;20102;-65
2022/06/12 13:02:53;;;;;;;6.88;2.10;;;22.30;97.30;;;;;;5038752;28;20044;-64
2022/06/12 13:05:42;;;;;;;4.70;1.55;;;22.00;95.70;;;;;;5100952;28;20032;-64
2022/06/12 13:08:40;;;;;;;8.30;2.30;;;21.90;96.20;;;;;;5079840;28;20044;-64
2022/06/12 13:11:21;;;;;;;6.40;1.80;;;22.00;96.40;;;;;;5077827;28;20044;-64
2022/06/12 13:14:09;;;;;;;5.25;1.67;;;22.20;96.00;;;;;;5066965;28;20095;-63
2022/06/12 13:16:37;;;;;;;4.03;1.50;;;22.00;96.20;;;;;;4987228;28;20117;-65
2022/06/12 13:19:22;;;;;;;8.98;2.55;;;22.10;96.10;;;;;;5094633;28;20049;-63
2022/06/12 13:22:15;;;;;;;7.00;1.90;;;22.20;96.80;;;;;;5097788;28;20036;-63
2022/06/12 13:24:44;;;;;;;7.80;2.28;;;22.30;96.60;;;;;;5050475;28;20224;-63
2022/06/12 13:27:25;;;;;;;7.90;2.22;;;22.20;97.00;;;;;;4998733;28;20043;-63
2022/06/12 13:29:53;;;;;;;7.85;1.70;;;22.20;97.60;;;;;;5100085;28;20028;-65
2022/06/12 13:32:20;;;;;;;7.70;2.40;;;22.30;96.30;;;;;;4998363;28;20042;-65
2022/06/12 13:35:04;;;;;;;6.63;2.22;;;22.20;97.10;;;;;;5006470;28;20042;-65
2022/06/12 13:37:32;;;;;;;;;;;22.20;97.10;;;;;;5097681;28;20110;-65
2022/06/12 13:40:00;;;;;;;10.95;2.95;;;22.30;97.50;;;;;;5100580;28;19916;-64